sensor_id;sensor_type;location;lat;lon;timestamp;temperature;humidity
31735;DHT22;18313;48.518;9.124;2024-03-25T00:01:42;4.80;99.90
31735;DHT22;18313;48.518;9.124;2024-03-25T00:04:08;4.60;99.90
31735;DHT22;18313;48.518;9.124;2024-03-25T00:06:35;4.60;99.90
31735;DHT22;18313;48.518;9.124;2024-03-25T00:09:01;4.60;99.90
31735;DHT22;18313;48.518;9.124;2024-03-25T00:11:28;4.60;99.90
31735;DHT22;18313;48.518;9.124;2024-03-25T00:13:54;4.60;99.90
31735;DHT22;18313;48.518;9.124;2024-03-25T00:16:21;4.60;99.90
31735;DHT22;18313;48.518;9.124;2024-03-25T00:18:47;4.60;99.90
31735;DHT22;18313;48.518;9.124;2024-03-25T00:21:14;4.50;99.90
31735;DHT22;18313;48.518;9.124;2024-03-25T00:23:40;4.50;99.90
31735;DHT22;18313;48.518;9.124;2024-03-25T00:26:06;4.50;99.90
31735;DHT22;18313;48.518;9.124;2024-03-25T00:28:32;4.40;99.90
31735;DHT22;18313;48.518;9.124;2024-03-25T00:30:59;4.50;99.90
31735;DHT22;18313;48.518;9.124;2024-03-25T00:33:25;4.60;99.90
31735;DHT22;18313;48.518;9.124;2024-03-25T00:35:51;4.50;99.90
31735;DHT22;18313;48.518;9.124;2024-03-25T00:38:18;4.50;99.90
31735;DHT22;18313;48.518;9.124;2024-03-25T00:40:45;4.40;99.90
31735;DHT22;18313;48.518;9.124;2024-03-25T00:43:11;4.50;99.90
31735;DHT22;18313;48.518;9.124;2024-03-25T00:45:38;4.50;99.90
31735;DHT22;18313;48.518;9.124;2024-03-25T00:48:04;4.50;99.90
31735;DHT22;18313;48.518;9.124;2024-03-25T00:50:30;4.50;99.90
31735;DHT22;18313;48.518;9.124;2024-03-25T00:52:56;4.50;99.90
31735;DHT22;18313;48.518;9.124;2024-03-25T00:55:22;4.50;99.90
31735;DHT22;18313;48.518;9.124;2024-03-25T00:57:49;4.40;99.90
31735;DHT22;18313;48.518;9.124;2024-03-25T01:00:15;4.40;99.90
31735;DHT22;18313;48.518;9.124;2024-03-25T01:02:42;4.50;99.90
31735;DHT22;18313;48.518;9.124;2024-03-25T01:05:08;4.50;99.90
31735;DHT22;18313;48.518;9.124;2024-03-25T01:07:35;4.50;99.90
31735;DHT22;18313;48.518;9.124;2024-03-25T01:10:01;4.40;99.90
31735;DHT22;18313;48.518;9.124;2024-03-25T01:12:28;4.40;99.90
31735;DHT22;18313;48.518;9.124;2024-03-25T01:14:54;4.50;99.90
31735;DHT22;18313;48.518;9.124;2024-03-25T01:17:20;4.40;99.90
31735;DHT22;18313;48.518;9.124;2024-03-25T01:19:46;4.40;99.90
31735;DHT22;18313;48.518;9.124;2024-03-25T01:22:13;4.40;99.90
31735;DHT22;18313;48.518;9.124;2024-03-25T01:24:39;4.40;99.90
31735;DHT22;18313;48.518;9.124;2024-03-25T01:27:06;4.40;99.90
31735;DHT22;18313;48.518;9.124;2024-03-25T01:29:32;4.40;99.90
31735;DHT22;18313;48.518;9.124;2024-03-25T01:31:58;4.50;99.90
31735;DHT22;18313;48.518;9.124;2024-03-25T01:34:28;4.50;99.90
31735;DHT22;18313;48.518;9.124;2024-03-25T01:36:54;4.40;99.90
31735;DHT22;18313;48.518;9.124;2024-03-25T01:39:20;4.40;99.90
31735;DHT22;18313;48.518;9.124;2024-03-25T01:41:47;4.40;99.90
31735;DHT22;18313;48.518;9.124;2024-03-25T01:44:13;4.40;99.90
31735;DHT22;18313;48.518;9.124;2024-03-25T01:46:39;4.50;99.90
31735;DHT22;18313;48.518;9.124;2024-03-25T01:49:06;4.40;99.90
31735;DHT22;18313;48.518;9.124;2024-03-25T01:51:33;4.50;99.90
31735;DHT22;18313;48.518;9.124;2024-03-25T01:54:00;4.50;99.90
31735;DHT22;18313;48.518;9.124;2024-03-25T01:56:27;4.60;99.90
31735;DHT22;18313;48.518;9.124;2024-03-25T01:58:56;4.50;99.90
31735;DHT22;18313;48.518;9.124;2024-03-25T02:01:22;4.50;99.90
31735;DHT22;18313;48.518;9.124;2024-03-25T02:03:49;4.60;99.90
31735;DHT22;18313;48.518;9.124;2024-03-25T02:06:17;4.60;99.90
31735;DHT22;18313;48.518;9.124;2024-03-25T02:08:44;4.50;99.90
31735;DHT22;18313;48.518;9.124;2024-03-25T02:11:10;4.60;99.90
31735;DHT22;18313;48.518;9.124;2024-03-25T02:13:38;4.60;99.90
31735;DHT22;18313;48.518;9.124;2024-03-25T02:16:05;4.60;99.90
31735;DHT22;18313;48.518;9.124;2024-03-25T02:18:31;4.60;99.90
31735;DHT22;18313;48.518;9.124;2024-03-25T02:20:58;4.60;99.90
31735;DHT22;18313;48.518;9.124;2024-03-25T02:23:25;4.60;99.90
31735;DHT22;18313;48.518;9.124;2024-03-25T02:25:52;4.60;99.90
31735;DHT22;18313;48.518;9.124;2024-03-25T02:28:19;4.60;99.90
31735;DHT22;18313;48.518;9.124;2024-03-25T02:30:45;4.70;99.90
31735;DHT22;18313;48.518;9.124;2024-03-25T02:33:12;4.60;99.90
31735;DHT22;18313;48.518;9.124;2024-03-25T02:35:39;4.50;99.90
31735;DHT22;18313;48.518;9.124;2024-03-25T02:38:07;4.60;99.90
31735;DHT22;18313;48.518;9.124;2024-03-25T02:40:34;4.50;99.90
31735;DHT22;18313;48.518;9.124;2024-03-25T02:43:01;4.50;99.90
31735;DHT22;18313;48.518;9.124;2024-03-25T02:45:28;4.50;99.90
31735;DHT22;18313;48.518;9.124;2024-03-25T02:47:55;4.60;99.90
31735;DHT22;18313;48.518;9.124;2024-03-25T02:50:21;4.50;99.90
31735;DHT22;18313;48.518;9.124;2024-03-25T02:52:47;4.60;99.90
31735;DHT22;18313;48.518;9.124;2024-03-25T02:55:14;4.60;99.90
31735;DHT22;18313;48.518;9.124;2024-03-25T02:57:40;4.50;99.90
31735;DHT22;18313;48.518;9.124;2024-03-25T03:00:06;4.50;99.90
31735;DHT22;18313;48.518;9.124;2024-03-25T03:02:35;4.60;99.90
31735;DHT22;18313;48.518;9.124;2024-03-25T03:05:01;4.50;99.90
31735;DHT22;18313;48.518;9.124;2024-03-25T03:07:29;4.60;99.90
31735;DHT22;18313;48.518;9.124;2024-03-25T03:09:55;4.60;99.90
31735;DHT22;18313;48.518;9.124;2024-03-25T03:12:22;4.50;99.90
31735;DHT22;18313;48.518;9.124;2024-03-25T03:14:48;4.30;99.90
31735;DHT22;18313;48.518;9.124;2024-03-25T03:17:14;4.40;99.90
31735;DHT22;18313;48.518;9.124;2024-03-25T03:19:40;4.40;99.90
31735;DHT22;18313;48.518;9.124;2024-03-25T03:22:06;4.30;99.90
31735;DHT22;18313;48.518;9.124;2024-03-25T03:24:33;4.20;99.90
31735;DHT22;18313;48.518;9.124;2024-03-25T03:27:00;4.30;99.90
31735;DHT22;18313;48.518;9.124;2024-03-25T03:29:26;4.20;99.90
31735;DHT22;18313;48.518;9.124;2024-03-25T03:31:53;4.10;99.90
31735;DHT22;18313;48.518;9.124;2024-03-25T03:34:19;4.20;99.90
31735;DHT22;18313;48.518;9.124;2024-03-25T03:36:45;4.10;99.90
31735;DHT22;18313;48.518;9.124;2024-03-25T03:39:11;4.20;99.90
31735;DHT22;18313;48.518;9.124;2024-03-25T03:41:37;4.20;99.90
31735;DHT22;18313;48.518;9.124;2024-03-25T03:44:04;4.20;99.90
31735;DHT22;18313;48.518;9.124;2024-03-25T03:46:30;4.10;99.90
31735;DHT22;18313;48.518;9.124;2024-03-25T03:48:56;4.00;99.90
31735;DHT22;18313;48.518;9.124;2024-03-25T03:51:22;4.00;99.90
31735;DHT22;18313;48.518;9.124;2024-03-25T03:53:48;3.90;99.90
31735;DHT22;18313;48.518;9.124;2024-03-25T03:56:15;3.90;99.90
31735;DHT22;18313;48.518;9.124;2024-03-25T03:58:42;3.90;99.90
31735;DHT22;18313;48.518;9.124;2024-03-25T04:01:18;4.00;99.90
31735;DHT22;18313;48.518;9.124;2024-03-25T04:03:44;4.00;99.90
31735;DHT22;18313;48.518;9.124;2024-03-25T04:06:12;4.00;99.90
31735;DHT22;18313;48.518;9.124;2024-03-25T04:08:39;3.90;99.90
31735;DHT22;18313;48.518;9.124;2024-03-25T04:11:06;3.90;99.90
31735;DHT22;18313;48.518;9.124;2024-03-25T04:13:36;3.80;99.90
31735;DHT22;18313;48.518;9.124;2024-03-25T04:16:03;3.70;99.90
31735;DHT22;18313;48.518;9.124;2024-03-25T04:18:31;3.70;99.90
31735;DHT22;18313;48.518;9.124;2024-03-25T04:20:57;3.60;99.90
31735;DHT22;18313;48.518;9.124;2024-03-25T04:23:24;3.70;99.90
31735;DHT22;18313;48.518;9.124;2024-03-25T04:25:51;3.70;99.90
31735;DHT22;18313;48.518;9.124;2024-03-25T04:28:17;3.70;99.90
31735;DHT22;18313;48.518;9.124;2024-03-25T04:30:44;3.60;99.90
31735;DHT22;18313;48.518;9.124;2024-03-25T04:33:16;3.60;99.90
31735;DHT22;18313;48.518;9.124;2024-03-25T04:35:42;3.60;99.90
31735;DHT22;18313;48.518;9.124;2024-03-25T04:38:08;3.50;99.90
31735;DHT22;18313;48.518;9.124;2024-03-25T04:40:36;3.60;99.90
31735;DHT22;18313;48.518;9.124;2024-03-25T04:43:02;3.60;99.90
31735;DHT22;18313;48.518;9.124;2024-03-25T04:45:28;3.60;99.90
31735;DHT22;18313;48.518;9.124;2024-03-25T04:47:55;3.60;99.90
31735;DHT22;18313;48.518;9.124;2024-03-25T04:50:21;3.70;99.90
31735;DHT22;18313;48.518;9.124;2024-03-25T04:52:47;3.60;99.90
31735;DHT22;18313;48.518;9.124;2024-03-25T04:55:13;3.60;99.90
31735;DHT22;18313;48.518;9.124;2024-03-25T04:57:40;3.50;99.90
31735;DHT22;18313;48.518;9.124;2024-03-25T05:00:06;3.50;99.90
31735;DHT22;18313;48.518;9.124;2024-03-25T05:02:33;3.50;99.90
31735;DHT22;18313;48.518;9.124;2024-03-25T05:04:59;3.50;99.90
31735;DHT22;18313;48.518;9.124;2024-03-25T05:07:25;3.50;99.90
31735;DHT22;18313;48.518;9.124;2024-03-25T05:09:52;3.50;99.90
31735;DHT22;18313;48.518;9.124;2024-03-25T05:12:19;3.50;99.90
31735;DHT22;18313;48.518;9.124;2024-03-25T05:14:45;3.50;99.90
31735;DHT22;18313;48.518;9.124;2024-03-25T05:17:11;3.50;99.90
31735;DHT22;18313;48.518;9.124;2024-03-25T05:19:37;3.50;99.90
31735;DHT22;18313;48.518;9.124;2024-03-25T05:22:03;3.50;99.90
31735;DHT22;18313;48.518;9.124;2024-03-25T05:24:30;3.50;99.90
31735;DHT22;18313;48.518;9.124;2024-03-25T05:26:56;3.40;99.90
31735;DHT22;18313;48.518;9.124;2024-03-25T05:29:22;3.40;99.90
31735;DHT22;18313;48.518;9.124;2024-03-25T05:32:00;3.40;99.90
31735;DHT22;18313;48.518;9.124;2024-03-25T05:34:27;3.50;99.90
31735;DHT22;18313;48.518;9.124;2024-03-25T05:36:54;3.50;99.90
31735;DHT22;18313;48.518;9.124;2024-03-25T05:39:21;3.60;99.90
31735;DHT22;18313;48.518;9.124;2024-03-25T05:41:48;3.60;99.90
31735;DHT22;18313;48.518;9.124;2024-03-25T05:44:14;3.80;99.90
31735;DHT22;18313;48.518;9.124;2024-03-25T05:46:41;3.80;99.90
31735;DHT22;18313;48.518;9.124;2024-03-25T05:49:08;3.80;99.90
31735;DHT22;18313;48.518;9.124;2024-03-25T05:51:34;3.80;99.90
31735;DHT22;18313;48.518;9.124;2024-03-25T05:54:01;3.80;99.90
31735;DHT22;18313;48.518;9.124;2024-03-25T05:56:27;3.80;99.90
31735;DHT22;18313;48.518;9.124;2024-03-25T05:58:57;3.80;99.90
31735;DHT22;18313;48.518;9.124;2024-03-25T06:01:24;3.70;99.90
31735;DHT22;18313;48.518;9.124;2024-03-25T06:03:50;3.70;99.90
31735;DHT22;18313;48.518;9.124;2024-03-25T06:06:16;3.70;99.90
31735;DHT22;18313;48.518;9.124;2024-03-25T06:08:43;3.80;99.90
31735;DHT22;18313;48.518;9.124;2024-03-25T06:11:09;3.90;99.90
31735;DHT22;18313;48.518;9.124;2024-03-25T06:13:36;3.90;99.90
31735;DHT22;18313;48.518;9.124;2024-03-25T06:16:02;3.90;99.90
31735;DHT22;18313;48.518;9.124;2024-03-25T06:18:28;4.00;99.90
31735;DHT22;18313;48.518;9.124;2024-03-25T06:20:55;3.90;99.90
31735;DHT22;18313;48.518;9.124;2024-03-25T06:23:24;4.00;99.90
31735;DHT22;18313;48.518;9.124;2024-03-25T06:25:51;4.10;99.90
31735;DHT22;18313;48.518;9.124;2024-03-25T06:28:18;4.20;99.90
31735;DHT22;18313;48.518;9.124;2024-03-25T06:30:46;4.30;99.90
31735;DHT22;18313;48.518;9.124;2024-03-25T06:33:31;4.40;99.90
31735;DHT22;18313;48.518;9.124;2024-03-25T06:36:16;4.40;99.90
31735;DHT22;18313;48.518;9.124;2024-03-25T06:38:43;4.40;99.90
31735;DHT22;18313;48.518;9.124;2024-03-25T06:41:09;4.30;99.90
31735;DHT22;18313;48.518;9.124;2024-03-25T06:43:38;4.40;99.90
31735;DHT22;18313;48.518;9.124;2024-03-25T06:46:05;4.50;99.90
31735;DHT22;18313;48.518;9.124;2024-03-25T06:48:32;4.60;99.90
31735;DHT22;18313;48.518;9.124;2024-03-25T06:51:00;4.70;99.90
31735;DHT22;18313;48.518;9.124;2024-03-25T06:53:29;4.70;99.90
31735;DHT22;18313;48.518;9.124;2024-03-25T06:55:59;4.70;99.90
31735;DHT22;18313;48.518;9.124;2024-03-25T06:58:26;4.70;99.90
31735;DHT22;18313;48.518;9.124;2024-03-25T07:00:55;4.80;99.90
31735;DHT22;18313;48.518;9.124;2024-03-25T07:03:22;4.90;99.90
31735;DHT22;18313;48.518;9.124;2024-03-25T07:05:50;4.80;99.90
31735;DHT22;18313;48.518;9.124;2024-03-25T07:08:21;4.90;99.90
31735;DHT22;18313;48.518;9.124;2024-03-25T07:10:47;5.00;99.90
31735;DHT22;18313;48.518;9.124;2024-03-25T07:13:14;5.00;99.90
31735;DHT22;18313;48.518;9.124;2024-03-25T07:15:40;5.00;99.90
31735;DHT22;18313;48.518;9.124;2024-03-25T07:18:06;5.20;99.90
31735;DHT22;18313;48.518;9.124;2024-03-25T07:20:33;5.30;99.90
31735;DHT22;18313;48.518;9.124;2024-03-25T07:22:59;5.60;99.90
31735;DHT22;18313;48.518;9.124;2024-03-25T07:25:25;5.60;99.90
31735;DHT22;18313;48.518;9.124;2024-03-25T07:27:52;5.70;99.90
31735;DHT22;18313;48.518;9.124;2024-03-25T07:30:19;5.80;99.90
31735;DHT22;18313;48.518;9.124;2024-03-25T07:32:45;5.80;99.90
31735;DHT22;18313;48.518;9.124;2024-03-25T07:35:11;5.80;99.90
31735;DHT22;18313;48.518;9.124;2024-03-25T07:37:37;5.70;99.90
31735;DHT22;18313;48.518;9.124;2024-03-25T07:40:05;5.80;99.90
31735;DHT22;18313;48.518;9.124;2024-03-25T07:42:31;5.90;99.90
31735;DHT22;18313;48.518;9.124;2024-03-25T07:44:57;6.00;99.90
31735;DHT22;18313;48.518;9.124;2024-03-25T07:47:23;6.10;99.90
31735;DHT22;18313;48.518;9.124;2024-03-25T07:49:50;6.20;99.90
31735;DHT22;18313;48.518;9.124;2024-03-25T07:52:16;6.20;99.90
31735;DHT22;18313;48.518;9.124;2024-03-25T07:54:42;6.30;99.90
31735;DHT22;18313;48.518;9.124;2024-03-25T07:57:09;6.50;99.90
31735;DHT22;18313;48.518;9.124;2024-03-25T07:59:35;6.50;99.90
31735;DHT22;18313;48.518;9.124;2024-03-25T08:02:01;6.50;99.90
31735;DHT22;18313;48.518;9.124;2024-03-25T08:04:27;6.50;99.90
31735;DHT22;18313;48.518;9.124;2024-03-25T08:06:55;6.50;99.90
31735;DHT22;18313;48.518;9.124;2024-03-25T08:09:21;6.60;99.90
31735;DHT22;18313;48.518;9.124;2024-03-25T08:11:47;6.60;99.90
31735;DHT22;18313;48.518;9.124;2024-03-25T08:14:14;6.60;99.90
31735;DHT22;18313;48.518;9.124;2024-03-25T08:16:40;6.70;99.90
31735;DHT22;18313;48.518;9.124;2024-03-25T08:19:07;6.70;99.90
31735;DHT22;18313;48.518;9.124;2024-03-25T08:21:33;6.70;99.90
31735;DHT22;18313;48.518;9.124;2024-03-25T08:23:59;6.90;99.90
31735;DHT22;18313;48.518;9.124;2024-03-25T08:26:26;7.10;99.90
31735;DHT22;18313;48.518;9.124;2024-03-25T08:28:52;7.20;99.90
31735;DHT22;18313;48.518;9.124;2024-03-25T08:31:18;7.30;99.90
31735;DHT22;18313;48.518;9.124;2024-03-25T08:33:45;7.30;99.90
31735;DHT22;18313;48.518;9.124;2024-03-25T08:36:11;7.40;99.90
31735;DHT22;18313;48.518;9.124;2024-03-25T08:38:37;7.40;99.90
31735;DHT22;18313;48.518;9.124;2024-03-25T08:41:03;7.60;99.90
31735;DHT22;18313;48.518;9.124;2024-03-25T08:43:30;7.70;99.90
31735;DHT22;18313;48.518;9.124;2024-03-25T08:45:57;7.80;99.90
31735;DHT22;18313;48.518;9.124;2024-03-25T08:48:23;8.00;99.90
31735;DHT22;18313;48.518;9.124;2024-03-25T08:50:49;8.00;99.90
31735;DHT22;18313;48.518;9.124;2024-03-25T08:53:15;8.20;99.90
31735;DHT22;18313;48.518;9.124;2024-03-25T08:55:45;8.50;99.90
31735;DHT22;18313;48.518;9.124;2024-03-25T08:58:15;8.70;99.90
31735;DHT22;18313;48.518;9.124;2024-03-25T09:00:42;9.00;99.90
31735;DHT22;18313;48.518;9.124;2024-03-25T09:03:09;9.30;99.90
31735;DHT22;18313;48.518;9.124;2024-03-25T09:05:37;9.50;99.90
31735;DHT22;18313;48.518;9.124;2024-03-25T09:08:06;9.70;99.90
31735;DHT22;18313;48.518;9.124;2024-03-25T09:10:32;10.00;99.90
31735;DHT22;18313;48.518;9.124;2024-03-25T09:13:17;10.20;99.90
31735;DHT22;18313;48.518;9.124;2024-03-25T09:15:43;10.10;99.90
31735;DHT22;18313;48.518;9.124;2024-03-25T09:18:09;10.20;99.90
31735;DHT22;18313;48.518;9.124;2024-03-25T09:20:35;10.40;99.90
31735;DHT22;18313;48.518;9.124;2024-03-25T09:23:01;10.80;99.90
31735;DHT22;18313;48.518;9.124;2024-03-25T09:25:28;11.10;99.90
31735;DHT22;18313;48.518;9.124;2024-03-25T09:27:54;11.40;99.90
31735;DHT22;18313;48.518;9.124;2024-03-25T09:30:20;11.70;99.90
31735;DHT22;18313;48.518;9.124;2024-03-25T09:32:46;11.80;99.10
31735;DHT22;18313;48.518;9.124;2024-03-25T09:35:13;11.90;99.90
31735;DHT22;18313;48.518;9.124;2024-03-25T09:37:39;12.00;98.70
31735;DHT22;18313;48.518;9.124;2024-03-25T09:40:06;12.10;99.00
31735;DHT22;18313;48.518;9.124;2024-03-25T09:42:49;12.30;97.70
31735;DHT22;18313;48.518;9.124;2024-03-25T09:45:18;12.10;97.70
31735;DHT22;18313;48.518;9.124;2024-03-25T09:47:46;12.20;98.50
31735;DHT22;18313;48.518;9.124;2024-03-25T09:50:13;12.40;98.40
31735;DHT22;18313;48.518;9.124;2024-03-25T09:52:49;12.50;96.50
31735;DHT22;18313;48.518;9.124;2024-03-25T09:55:15;12.80;96.30
31735;DHT22;18313;48.518;9.124;2024-03-25T09:57:45;12.90;95.30
31735;DHT22;18313;48.518;9.124;2024-03-25T10:00:12;13.00;97.10
31735;DHT22;18313;48.518;9.124;2024-03-25T10:02:39;13.20;95.40
31735;DHT22;18313;48.518;9.124;2024-03-25T10:05:06;13.00;95.60
31735;DHT22;18313;48.518;9.124;2024-03-25T10:07:33;13.20;95.80
31735;DHT22;18313;48.518;9.124;2024-03-25T10:10:06;13.50;95.60
31735;DHT22;18313;48.518;9.124;2024-03-25T10:12:33;13.70;96.10
31735;DHT22;18313;48.518;9.124;2024-03-25T10:14:59;13.90;94.50
31735;DHT22;18313;48.518;9.124;2024-03-25T10:17:26;13.90;94.10
31735;DHT22;18313;48.518;9.124;2024-03-25T10:19:55;14.20;92.60
31735;DHT22;18313;48.518;9.124;2024-03-25T10:22:21;14.50;93.30
31735;DHT22;18313;48.518;9.124;2024-03-25T10:24:51;14.70;92.90
31735;DHT22;18313;48.518;9.124;2024-03-25T10:27:23;15.00;93.10
31735;DHT22;18313;48.518;9.124;2024-03-25T10:29:54;14.70;88.90
31735;DHT22;18313;48.518;9.124;2024-03-25T10:32:23;14.60;90.90
31735;DHT22;18313;48.518;9.124;2024-03-25T10:34:51;14.80;90.20
31735;DHT22;18313;48.518;9.124;2024-03-25T10:37:18;14.90;86.90
31735;DHT22;18313;48.518;9.124;2024-03-25T10:39:50;15.20;85.80
31735;DHT22;18313;48.518;9.124;2024-03-25T10:42:20;15.30;89.20
31735;DHT22;18313;48.518;9.124;2024-03-25T10:44:47;15.10;88.00
31735;DHT22;18313;48.518;9.124;2024-03-25T10:47:24;15.10;88.40
31735;DHT22;18313;48.518;9.124;2024-03-25T10:49:58;15.30;90.60
31735;DHT22;18313;48.518;9.124;2024-03-25T10:52:26;15.50;87.70
31735;DHT22;18313;48.518;9.124;2024-03-25T10:54:55;15.70;86.80
31735;DHT22;18313;48.518;9.124;2024-03-25T10:57:22;15.70;88.20
31735;DHT22;18313;48.518;9.124;2024-03-25T10:59:49;15.80;85.40
31735;DHT22;18313;48.518;9.124;2024-03-25T11:02:15;15.70;85.30
31735;DHT22;18313;48.518;9.124;2024-03-25T11:04:44;15.80;89.00
31735;DHT22;18313;48.518;9.124;2024-03-25T11:07:12;15.70;85.10
31735;DHT22;18313;48.518;9.124;2024-03-25T11:09:39;15.90;86.10
31735;DHT22;18313;48.518;9.124;2024-03-25T11:12:06;15.80;84.70
31735;DHT22;18313;48.518;9.124;2024-03-25T11:14:33;15.80;86.20
31735;DHT22;18313;48.518;9.124;2024-03-25T11:17:00;16.00;86.00
31735;DHT22;18313;48.518;9.124;2024-03-25T11:19:28;16.30;85.00
31735;DHT22;18313;48.518;9.124;2024-03-25T11:22:06;16.40;83.80
31735;DHT22;18313;48.518;9.124;2024-03-25T11:24:32;16.50;85.70
31735;DHT22;18313;48.518;9.124;2024-03-25T11:27:05;16.40;79.50
31735;DHT22;18313;48.518;9.124;2024-03-25T11:29:31;16.00;86.00
31735;DHT22;18313;48.518;9.124;2024-03-25T11:32:01;15.90;85.30
31735;DHT22;18313;48.518;9.124;2024-03-25T11:34:29;15.90;85.10
31735;DHT22;18313;48.518;9.124;2024-03-25T11:36:55;16.10;85.60
31735;DHT22;18313;48.518;9.124;2024-03-25T11:39:22;16.20;83.10
31735;DHT22;18313;48.518;9.124;2024-03-25T11:41:48;16.10;82.00
31735;DHT22;18313;48.518;9.124;2024-03-25T11:44:15;16.10;84.70
31735;DHT22;18313;48.518;9.124;2024-03-25T11:46:43;15.80;82.70
31735;DHT22;18313;48.518;9.124;2024-03-25T11:49:17;15.30;83.40
31735;DHT22;18313;48.518;9.124;2024-03-25T11:51:44;15.00;82.10
31735;DHT22;18313;48.518;9.124;2024-03-25T11:54:13;15.00;85.30
31735;DHT22;18313;48.518;9.124;2024-03-25T11:56:39;15.50;88.50
31735;DHT22;18313;48.518;9.124;2024-03-25T11:59:06;15.80;84.90
31735;DHT22;18313;48.518;9.124;2024-03-25T12:01:32;15.80;83.50
31735;DHT22;18313;48.518;9.124;2024-03-25T12:04:12;16.00;83.60
31735;DHT22;18313;48.518;9.124;2024-03-25T12:06:38;16.40;83.70
31735;DHT22;18313;48.518;9.124;2024-03-25T12:09:04;16.50;81.90
31735;DHT22;18313;48.518;9.124;2024-03-25T12:11:49;16.70;82.70
31735;DHT22;18313;48.518;9.124;2024-03-25T12:14:16;16.70;80.90
31735;DHT22;18313;48.518;9.124;2024-03-25T12:16:42;16.80;81.20
31735;DHT22;18313;48.518;9.124;2024-03-25T12:19:08;17.10;81.30
31735;DHT22;18313;48.518;9.124;2024-03-25T12:21:34;17.20;80.50
31735;DHT22;18313;48.518;9.124;2024-03-25T12:24:00;17.10;78.20
31735;DHT22;18313;48.518;9.124;2024-03-25T12:26:27;16.70;82.10
31735;DHT22;18313;48.518;9.124;2024-03-25T12:28:53;16.60;79.30
31735;DHT22;18313;48.518;9.124;2024-03-25T12:31:23;16.60;83.00
31735;DHT22;18313;48.518;9.124;2024-03-25T12:33:49;16.30;80.30
31735;DHT22;18313;48.518;9.124;2024-03-25T12:36:16;16.40;84.20
31735;DHT22;18313;48.518;9.124;2024-03-25T12:38:42;16.10;79.80
31735;DHT22;18313;48.518;9.124;2024-03-25T12:41:11;15.90;82.50
31735;DHT22;18313;48.518;9.124;2024-03-25T12:43:42;15.90;81.80
31735;DHT22;18313;48.518;9.124;2024-03-25T12:46:09;15.70;81.20
31735;DHT22;18313;48.518;9.124;2024-03-25T12:48:36;15.80;81.60
31735;DHT22;18313;48.518;9.124;2024-03-25T12:51:03;15.70;80.20
31735;DHT22;18313;48.518;9.124;2024-03-25T12:53:29;15.60;78.60
31735;DHT22;18313;48.518;9.124;2024-03-25T12:55:56;15.70;79.70
31735;DHT22;18313;48.518;9.124;2024-03-25T12:58:22;15.40;78.80
31735;DHT22;18313;48.518;9.124;2024-03-25T13:00:49;15.50;81.50
31735;DHT22;18313;48.518;9.124;2024-03-25T13:03:15;15.70;79.80
31735;DHT22;18313;48.518;9.124;2024-03-25T13:05:43;15.50;80.60
31735;DHT22;18313;48.518;9.124;2024-03-25T13:08:09;15.60;79.20
31735;DHT22;18313;48.518;9.124;2024-03-25T13:10:36;15.80;80.20
31735;DHT22;18313;48.518;9.124;2024-03-25T13:13:02;16.00;81.40
31735;DHT22;18313;48.518;9.124;2024-03-25T13:15:28;15.60;80.50
31735;DHT22;18313;48.518;9.124;2024-03-25T13:17:55;15.40;78.80
31735;DHT22;18313;48.518;9.124;2024-03-25T13:20:21;14.80;80.40
31735;DHT22;18313;48.518;9.124;2024-03-25T13:22:49;14.50;77.70
31735;DHT22;18313;48.518;9.124;2024-03-25T13:25:15;14.60;81.80
31735;DHT22;18313;48.518;9.124;2024-03-25T13:27:41;15.00;85.20
31735;DHT22;18313;48.518;9.124;2024-03-25T13:30:08;15.30;83.40
31735;DHT22;18313;48.518;9.124;2024-03-25T13:32:35;15.70;83.50
31735;DHT22;18313;48.518;9.124;2024-03-25T13:35:01;15.60;82.20
31735;DHT22;18313;48.518;9.124;2024-03-25T13:37:27;15.60;82.40
31735;DHT22;18313;48.518;9.124;2024-03-25T13:39:53;16.00;83.80
31735;DHT22;18313;48.518;9.124;2024-03-25T13:42:21;16.40;81.50
31735;DHT22;18313;48.518;9.124;2024-03-25T13:44:47;16.60;80.50
31735;DHT22;18313;48.518;9.124;2024-03-25T13:47:14;16.90;76.20
31735;DHT22;18313;48.518;9.124;2024-03-25T13:49:40;16.70;78.60
31735;DHT22;18313;48.518;9.124;2024-03-25T13:52:06;16.40;78.20
31735;DHT22;18313;48.518;9.124;2024-03-25T13:54:32;16.10;77.20
31735;DHT22;18313;48.518;9.124;2024-03-25T13:56:59;15.70;76.80
31735;DHT22;18313;48.518;9.124;2024-03-25T13:59:25;15.70;80.30
31735;DHT22;18313;48.518;9.124;2024-03-25T14:01:51;16.10;82.40
31735;DHT22;18313;48.518;9.124;2024-03-25T14:04:23;16.20;75.80
31735;DHT22;18313;48.518;9.124;2024-03-25T14:06:49;16.30;80.30
31735;DHT22;18313;48.518;9.124;2024-03-25T14:09:25;16.70;76.90
31735;DHT22;18313;48.518;9.124;2024-03-25T14:11:51;16.60;77.40
31735;DHT22;18313;48.518;9.124;2024-03-25T14:14:17;15.90;79.40
31735;DHT22;18313;48.518;9.124;2024-03-25T14:16:44;15.80;80.10
31735;DHT22;18313;48.518;9.124;2024-03-25T14:19:10;16.10;80.10
31735;DHT22;18313;48.518;9.124;2024-03-25T14:21:36;16.00;80.00
31735;DHT22;18313;48.518;9.124;2024-03-25T14:24:05;15.80;79.90
31735;DHT22;18313;48.518;9.124;2024-03-25T14:26:32;15.90;78.40
31735;DHT22;18313;48.518;9.124;2024-03-25T14:28:59;15.80;78.70
31735;DHT22;18313;48.518;9.124;2024-03-25T14:31:28;16.10;80.10
31735;DHT22;18313;48.518;9.124;2024-03-25T14:33:58;16.40;78.70
31735;DHT22;18313;48.518;9.124;2024-03-25T14:36:24;16.50;78.80
31735;DHT22;18313;48.518;9.124;2024-03-25T14:38:51;16.50;77.90
31735;DHT22;18313;48.518;9.124;2024-03-25T14:41:19;16.20;79.90
31735;DHT22;18313;48.518;9.124;2024-03-25T14:43:46;16.10;79.70
31735;DHT22;18313;48.518;9.124;2024-03-25T14:46:14;16.20;76.60
31735;DHT22;18313;48.518;9.124;2024-03-25T14:48:40;16.40;76.50
31735;DHT22;18313;48.518;9.124;2024-03-25T14:51:07;16.50;76.80
31735;DHT22;18313;48.518;9.124;2024-03-25T14:53:33;15.90;73.70
31735;DHT22;18313;48.518;9.124;2024-03-25T14:56:00;15.40;73.60
31735;DHT22;18313;48.518;9.124;2024-03-25T14:58:26;15.30;70.40
31735;DHT22;18313;48.518;9.124;2024-03-25T15:00:53;15.10;76.90
31735;DHT22;18313;48.518;9.124;2024-03-25T15:03:19;14.80;75.60
31735;DHT22;18313;48.518;9.124;2024-03-25T15:05:45;14.90;77.60
31735;DHT22;18313;48.518;9.124;2024-03-25T15:08:11;15.10;73.80
31735;DHT22;18313;48.518;9.124;2024-03-25T15:10:38;15.00;72.10
31735;DHT22;18313;48.518;9.124;2024-03-25T15:13:04;15.00;75.50
31735;DHT22;18313;48.518;9.124;2024-03-25T15:15:31;15.20;74.50
31735;DHT22;18313;48.518;9.124;2024-03-25T15:18:01;15.30;75.10
31735;DHT22;18313;48.518;9.124;2024-03-25T15:20:27;15.30;74.40
31735;DHT22;18313;48.518;9.124;2024-03-25T15:22:54;15.20;76.30
31735;DHT22;18313;48.518;9.124;2024-03-25T15:25:20;15.10;75.40
31735;DHT22;18313;48.518;9.124;2024-03-25T15:27:46;15.10;74.10
31735;DHT22;18313;48.518;9.124;2024-03-25T15:30:13;15.10;76.50
31735;DHT22;18313;48.518;9.124;2024-03-25T15:32:39;15.10;75.50
31735;DHT22;18313;48.518;9.124;2024-03-25T15:35:08;15.20;76.00
31735;DHT22;18313;48.518;9.124;2024-03-25T15:37:38;15.20;76.00
31735;DHT22;18313;48.518;9.124;2024-03-25T15:40:05;15.10;74.80